sensor_id;sensor_type;location;lat;lon;timestamp;pressure;altitude;pressure_sealevel;temperature;humidity
37878;BME280;23715;53.652;8.516;2023-05-01T00:03:16;102154.80;;;7.47;100.00
37878;BME280;23715;53.652;8.516;2023-05-01T00:08:16;102148.91;;;7.40;100.00
37878;BME280;23715;53.652;8.516;2023-05-01T00:13:16;102144.27;;;7.44;100.00
37878;BME280;23715;53.652;8.516;2023-05-01T00:18:19;102142.34;;;7.55;100.00
37878;BME280;23715;53.652;8.516;2023-05-01T00:23:18;102128.52;;;7.55;100.00
37878;BME280;23715;53.652;8.516;2023-05-01T00:28:18;102126.36;;;7.62;100.00
37878;BME280;23715;53.652;8.516;2023-05-01T00:33:18;102122.16;;;7.74;100.00
37878;BME280;23715;53.652;8.516;2023-05-01T00:38:17;102113.98;;;7.68;100.00
37878;BME280;23715;53.652;8.516;2023-05-01T00:43:17;102106.54;;;7.57;100.00
37878;BME280;23715;53.652;8.516;2023-05-01T00:48:16;102096.57;;;7.35;100.00
37878;BME280;23715;53.652;8.516;2023-05-01T00:53:16;102093.67;;;7.31;100.00
37878;BME280;23715;53.652;8.516;2023-05-01T00:58:16;102094.78;;;7.27;100.00
37878;BME280;23715;53.652;8.516;2023-05-01T01:03:16;102086.84;;;7.08;100.00
37878;BME280;23715;53.652;8.516;2023-05-01T01:13:22;102076.09;;;7.34;100.00
37878;BME280;23715;53.652;8.516;2023-05-01T01:18:23;102073.83;;;7.35;100.00
37878;BME280;23715;53.652;8.516;2023-05-01T01:28:47;102062.44;;;7.14;100.00
37878;BME280;23715;53.652;8.516;2023-05-01T01:38:53;102051.44;;;6.85;100.00
37878;BME280;23715;53.652;8.516;2023-05-01T01:43:54;102045.75;;;6.65;100.00
37878;BME280;23715;53.652;8.516;2023-05-01T01:48:55;102044.73;;;6.94;100.00
37878;BME280;23715;53.652;8.516;2023-05-01T01:53:55;102038.69;;;6.81;100.00
37878;BME280;23715;53.652;8.516;2023-05-01T01:58:56;102028.03;;;7.15;100.00
37878;BME280;23715;53.652;8.516;2023-05-01T02:03:57;102016.84;;;7.33;100.00
37878;BME280;23715;53.652;8.516;2023-05-01T02:08:58;102006.44;;;7.35;100.00
37878;BME280;23715;53.652;8.516;2023-05-01T02:14:05;102002.55;;;7.16;100.00
37878;BME280;23715;53.652;8.516;2023-05-01T02:19:01;101994.15;;;7.07;100.00
37878;BME280;23715;53.652;8.516;2023-05-01T02:24:02;101983.38;;;7.08;100.00
37878;BME280;23715;53.652;8.516;2023-05-01T02:29:04;101978.33;;;7.11;100.00
37878;BME280;23715;53.652;8.516;2023-05-01T02:34:05;101966.14;;;7.38;100.00
37878;BME280;23715;53.652;8.516;2023-05-01T02:39:05;101955.09;;;7.45;100.00
37878;BME280;23715;53.652;8.516;2023-05-01T02:44:06;101956.65;;;7.24;100.00
37878;BME280;23715;53.652;8.516;2023-05-01T02:49:06;101947.33;;;7.15;100.00
37878;BME280;23715;53.652;8.516;2023-05-01T02:54:06;101950.31;;;7.09;100.00
37878;BME280;23715;53.652;8.516;2023-05-01T02:59:06;101937.83;;;7.10;100.00
37878;BME280;23715;53.652;8.516;2023-05-01T03:04:05;101937.86;;;7.17;100.00
37878;BME280;23715;53.652;8.516;2023-05-01T03:09:06;101932.64;;;7.22;100.00
37878;BME280;23715;53.652;8.516;2023-05-01T03:14:07;101928.82;;;7.19;100.00
37878;BME280;23715;53.652;8.516;2023-05-01T03:19:11;101920.59;;;7.47;100.00
37878;BME280;23715;53.652;8.516;2023-05-01T03:24:10;101907.97;;;7.42;100.00
37878;BME280;23715;53.652;8.516;2023-05-01T03:29:10;101901.12;;;7.68;100.00
37878;BME280;23715;53.652;8.516;2023-05-01T03:34:10;101896.00;;;7.72;100.00
37878;BME280;23715;53.652;8.516;2023-05-01T03:39:10;101892.23;;;7.68;100.00
37878;BME280;23715;53.652;8.516;2023-05-01T03:44:28;101878.80;;;7.60;100.00
37878;BME280;23715;53.652;8.516;2023-05-01T03:49:28;101872.22;;;7.59;100.00
37878;BME280;23715;53.652;8.516;2023-05-01T03:54:27;101869.47;;;7.68;100.00
37878;BME280;23715;53.652;8.516;2023-05-01T03:59:31;101861.88;;;7.76;100.00
37878;BME280;23715;53.652;8.516;2023-05-01T04:04:31;101865.50;;;7.75;100.00
37878;BME280;23715;53.652;8.516;2023-05-01T04:09:31;101856.66;;;7.66;100.00
37878;BME280;23715;53.652;8.516;2023-05-01T04:14:31;101850.52;;;7.63;100.00
37878;BME280;23715;53.652;8.516;2023-05-01T04:19:30;101850.03;;;7.80;100.00
37878;BME280;23715;53.652;8.516;2023-05-01T04:24:31;101839.16;;;7.90;100.00
37878;BME280;23715;53.652;8.516;2023-05-01T04:29:31;101833.77;;;7.83;100.00
37878;BME280;23715;53.652;8.516;2023-05-01T04:34:30;101838.76;;;7.59;100.00
37878;BME280;23715;53.652;8.516;2023-05-01T04:39:32;101843.37;;;7.48;100.00
37878;BME280;23715;53.652;8.516;2023-05-01T04:44:32;101845.23;;;7.39;100.00
37878;BME280;23715;53.652;8.516;2023-05-01T04:49:33;101839.80;;;7.40;100.00
37878;BME280;23715;53.652;8.516;2023-05-01T04:54:33;101829.67;;;7.61;100.00
37878;BME280;23715;53.652;8.516;2023-05-01T04:59:33;101832.02;;;7.75;100.00
37878;BME280;23715;53.652;8.516;2023-05-01T05:04:32;101826.13;;;7.84;100.00
37878;BME280;23715;53.652;8.516;2023-05-01T05:09:33;101831.72;;;7.95;100.00
37878;BME280;23715;53.652;8.516;2023-05-01T05:14:33;101832.52;;;8.12;100.00
37878;BME280;23715;53.652;8.516;2023-05-01T05:19:33;101827.59;;;8.34;100.00
37878;BME280;23715;53.652;8.516;2023-05-01T05:24:34;101822.45;;;8.38;100.00
37878;BME280;23715;53.652;8.516;2023-05-01T05:29:35;101811.09;;;8.56;100.00
37878;BME280;23715;53.652;8.516;2023-05-01T05:34:35;101804.86;;;8.70;100.00
37878;BME280;23715;53.652;8.516;2023-05-01T05:39:36;101797.58;;;8.87;100.00
37878;BME280;23715;53.652;8.516;2023-05-01T05:44:36;101790.24;;;9.10;100.00
37878;BME280;23715;53.652;8.516;2023-05-01T05:49:38;101791.16;;;9.31;100.00
37878;BME280;23715;53.652;8.516;2023-05-01T05:54:37;101781.16;;;9.40;100.00
37878;BME280;23715;53.652;8.516;2023-05-01T05:59:40;101784.62;;;9.62;100.00
37878;BME280;23715;53.652;8.516;2023-05-01T06:04:44;101784.25;;;9.81;100.00
37878;BME280;23715;53.652;8.516;2023-05-01T06:09:45;101783.16;;;10.04;100.00
37878;BME280;23715;53.652;8.516;2023-05-01T06:14:44;101774.50;;;10.19;100.00
37878;BME280;23715;53.652;8.516;2023-05-01T06:19:46;101771.35;;;10.19;100.00
37878;BME280;23715;53.652;8.516;2023-05-01T06:29:49;101750.60;;;10.47;100.00
37878;BME280;23715;53.652;8.516;2023-05-01T06:34:49;101750.09;;;10.60;100.00
37878;BME280;23715;53.652;8.516;2023-05-01T06:39:49;101739.00;;;10.78;100.00
37878;BME280;23715;53.652;8.516;2023-05-01T06:44:52;101730.23;;;10.87;100.00
37878;BME280;23715;53.652;8.516;2023-05-01T06:49:50;101722.16;;;11.05;100.00
37878;BME280;23715;53.652;8.516;2023-05-01T06:54:51;101725.34;;;11.23;100.00
37878;BME280;23715;53.652;8.516;2023-05-01T06:59:52;101720.74;;;11.37;100.00
37878;BME280;23715;53.652;8.516;2023-05-01T07:04:53;101716.08;;;11.33;100.00
37878;BME280;23715;53.652;8.516;2023-05-01T07:09:52;101711.65;;;11.62;100.00
37878;BME280;23715;53.652;8.516;2023-05-01T07:14:52;101700.31;;;11.81;100.00
37878;BME280;23715;53.652;8.516;2023-05-01T07:19:51;101700.38;;;11.98;100.00
37878;BME280;23715;53.652;8.516;2023-05-01T07:24:51;101696.58;;;12.06;100.00
37878;BME280;23715;53.652;8.516;2023-05-01T07:29:50;101688.16;;;12.27;100.00
37878;BME280;23715;53.652;8.516;2023-05-01T07:34:50;101681.53;;;12.32;100.00
37878;BME280;23715;53.652;8.516;2023-05-01T07:39:49;101671.19;;;12.65;100.00
37878;BME280;23715;53.652;8.516;2023-05-01T07:44:49;101668.31;;;12.89;100.00
37878;BME280;23715;53.652;8.516;2023-05-01T07:49:49;101665.44;;;13.45;100.00
37878;BME280;23715;53.652;8.516;2023-05-01T07:54:49;101662.55;;;13.79;100.00
37878;BME280;23715;53.652;8.516;2023-05-01T07:59:53;101653.90;;;14.16;100.00
37878;BME280;23715;53.652;8.516;2023-05-01T08:05:08;101649.83;;;14.32;100.00
37878;BME280;23715;53.652;8.516;2023-05-01T08:10:08;101660.98;;;14.23;100.00
37878;BME280;23715;53.652;8.516;2023-05-01T08:15:07;101653.67;;;14.29;100.00
37878;BME280;23715;53.652;8.516;2023-05-01T08:20:07;101637.81;;;14.55;100.00
37878;BME280;23715;53.652;8.516;2023-05-01T08:25:07;101640.06;;;14.50;100.00
37878;BME280;23715;53.652;8.516;2023-05-01T08:30:06;101637.68;;;14.41;100.00
37878;BME280;23715;53.652;8.516;2023-05-01T08:35:08;101628.53;;;14.48;100.00
37878;BME280;23715;53.652;8.516;2023-05-01T08:40:07;101627.52;;;14.49;100.00
37878;BME280;23715;53.652;8.516;2023-05-01T08:45:07;101628.52;;;14.63;100.00
37878;BME280;23715;53.652;8.516;2023-05-01T08:50:13;101630.96;;;14.67;100.00
37878;BME280;23715;53.652;8.516;2023-05-01T08:55:14;101623.44;;;14.99;100.00
37878;BME280;23715;53.652;8.516;2023-05-01T09:00:11;101616.73;;;15.13;100.00
37878;BME280;23715;53.652;8.516;2023-05-01T09:05:16;101618.95;;;15.23;100.00
37878;BME280;23715;53.652;8.516;2023-05-01T09:10:18;101609.52;;;15.37;100.00
37878;BME280;23715;53.652;8.516;2023-05-01T09:15:20;101604.02;;;15.43;100.00
37878;BME280;23715;53.652;8.516;2023-05-01T09:20:19;101602.86;;;15.46;100.00
37878;BME280;23715;53.652;8.516;2023-05-01T09:25:19;101605.02;;;15.52;100.00
37878;BME280;23715;53.652;8.516;2023-05-01T09:30:34;101602.33;;;15.66;100.00
37878;BME280;23715;53.652;8.516;2023-05-01T09:35:53;101593.42;;;15.93;100.00
37878;BME280;23715;53.652;8.516;2023-05-01T09:40:55;101586.36;;;16.37;100.00
37878;BME280;23715;53.652;8.516;2023-05-01T09:46:08;101596.92;;;15.89;100.00
37878;BME280;23715;53.652;8.516;2023-05-01T09:51:20;101589.20;;;16.08;100.00
37878;BME280;23715;53.652;8.516;2023-05-01T09:56:10;101586.20;;;16.11;100.00
37878;BME280;23715;53.652;8.516;2023-05-01T10:01:09;101575.61;;;16.32;100.00
37878;BME280;23715;53.652;8.516;2023-05-01T10:06:28;101579.92;;;16.25;100.00
37878;BME280;23715;53.652;8.516;2023-05-01T10:11:26;101572.94;;;16.36;100.00
37878;BME280;23715;53.652;8.516;2023-05-01T10:16:29;101563.07;;;16.49;100.00
37878;BME280;23715;53.652;8.516;2023-05-01T10:21:29;101560.98;;;16.61;100.00
37878;BME280;23715;53.652;8.516;2023-05-01T10:26:33;101562.67;;;16.62;100.00
37878;BME280;23715;53.652;8.516;2023-05-01T10:31:33;101563.38;;;16.64;100.00
37878;BME280;23715;53.652;8.516;2023-05-01T10:46:59;101558.93;;;17.12;100.00
37878;BME280;23715;53.652;8.516;2023-05-01T10:52:01;101555.91;;;17.15;100.00
37878;BME280;23715;53.652;8.516;2023-05-01T10:57:01;101549.50;;;17.21;100.00
37878;BME280;23715;53.652;8.516;2023-05-01T11:02:01;101542.67;;;17.43;100.00
37878;BME280;23715;53.652;8.516;2023-05-01T11:12:08;101528.27;;;17.81;100.00
37878;BME280;23715;53.652;8.516;2023-05-01T11:17:08;101518.84;;;17.93;95.69
37878;BME280;23715;53.652;8.516;2023-05-01T11:22:11;101520.36;;;17.91;96.45
37878;BME280;23715;53.652;8.516;2023-05-01T11:27:12;101517.88;;;18.10;98.14
37878;BME280;23715;53.652;8.516;2023-05-01T11:32:14;101502.55;;;18.05;95.70
37878;BME280;23715;53.652;8.516;2023-05-01T11:37:12;101507.36;;;18.16;96.30
37878;BME280;23715;53.652;8.516;2023-05-01T11:42:12;101501.25;;;18.30;94.32
37878;BME280;23715;53.652;8.516;2023-05-01T11:47:11;101495.16;;;18.40;96.90
37878;BME280;23715;53.652;8.516;2023-05-01T11:52:11;101501.70;;;18.01;94.82
37878;BME280;23715;53.652;8.516;2023-05-01T11:57:10;101497.12;;;18.13;96.96
37878;BME280;23715;53.652;8.516;2023-05-01T12:02:16;101495.72;;;17.93;97.90
37878;BME280;23715;53.652;8.516;2023-05-01T12:07:23;101494.44;;;18.18;98.21
37878;BME280;23715;53.652;8.516;2023-05-01T12:12:22;101490.20;;;18.31;99.14
37878;BME280;23715;53.652;8.516;2023-05-01T12:17:24;101496.30;;;17.83;100.00
37878;BME280;23715;53.652;8.516;2023-05-01T12:22:24;101503.50;;;17.58;100.00
37878;BME280;23715;53.652;8.516;2023-05-01T12:27:24;101500.93;;;17.26;100.00
37878;BME280;23715;53.652;8.516;2023-05-01T12:32:28;101487.07;;;17.37;100.00
37878;BME280;23715;53.652;8.516;2023-05-01T12:37:33;101486.09;;;17.16;100.00
37878;BME280;23715;53.652;8.516;2023-05-01T12:42:33;101480.75;;;17.28;100.00
37878;BME280;23715;53.652;8.516;2023-05-01T12:47:35;101501.94;;;16.63;100.00
37878;BME280;23715;53.652;8.516;2023-05-01T12:52:35;101485.76;;;17.15;100.00
37878;BME280;23715;53.652;8.516;2023-05-01T12:57:35;101477.89;;;17.08;100.00
37878;BME280;23715;53.652;8.516;2023-05-01T13:02:34;101477.09;;;17.42;100.00
37878;BME280;23715;53.652;8.516;2023-05-01T13:07:34;101478.36;;;17.29;100.00
37878;BME280;23715;53.652;8.516;2023-05-01T13:12:34;101467.48;;;17.29;100.00
37878;BME280;23715;53.652;8.516;2023-05-01T13:17:34;101470.06;;;17.35;100.00
37878;BME280;23715;53.652;8.516;2023-05-01T13:22:41;101474.36;;;17.11;100.00
37878;BME280;23715;53.652;8.516;2023-05-01T13:27:37;101484.52;;;16.87;100.00
37878;BME280;23715;53.652;8.516;2023-05-01T13:32:38;101490.89;;;16.60;100.00
37878;BME280;23715;53.652;8.516;2023-05-01T13:37:38;101488.67;;;17.00;100.00
37878;BME280;23715;53.652;8.516;2023-05-01T13:42:38;101489.11;;;16.87;100.00
37878;BME280;23715;53.652;8.516;2023-05-01T13:47:40;101487.24;;;16.87;100.00
37878;BME280;23715;53.652;8.516;2023-05-01T13:52:41;101482.66;;;17.10;100.00
37878;BME280;23715;53.652;8.516;2023-05-01T13:57:41;101486.58;;;16.89;100.00
37878;BME280;23715;53.652;8.516;2023-05-01T14:02:41;101488.93;;;16.88;100.00
37878;BME280;23715;53.652;8.516;2023-05-01T14:07:52;101489.41;;;16.16;100.00
37878;BME280;23715;53.652;8.516;2023-05-01T14:12:45;101486.47;;;16.41;100.00
37878;BME280;23715;53.652;8.516;2023-05-01T14:17:47;101485.44;;;16.78;100.00
37878;BME280;23715;53.652;8.516;2023-05-01T14:22:53;101465.34;;;17.41;100.00
37878;BME280;23715;53.652;8.516;2023-05-01T14:27:53;101477.78;;;16.95;100.00
37878;BME280;23715;53.652;8.516;2023-05-01T14:32:54;101471.94;;;17.34;100.00
37878;BME280;23715;53.652;8.516;2023-05-01T14:37:54;101472.37;;;17.22;100.00
37878;BME280;23715;53.652;8.516;2023-05-01T14:42:56;101470.76;;;17.11;100.00
37878;BME280;23715;53.652;8.516;2023-05-01T14:47:55;101472.19;;;17.19;100.00
37878;BME280;23715;53.652;8.516;2023-05-01T14:52:55;101486.40;;;16.73;100.00
37878;BME280;23715;53.652;8.516;2023-05-01T14:57:55;101485.52;;;16.86;100.00
37878;BME280;23715;53.652;8.516;2023-05-01T15:02:54;101487.97;;;16.57;100.00
37878;BME280;23715;53.652;8.516;2023-05-01T15:07:54;101489.91;;;16.47;100.00
37878;BME280;23715;53.652;8.516;2023-05-01T15:12:54;101493.25;;;16.59;100.00
37878;BME280;23715;53.652;8.516;2023-05-01T15:17:53;101488.23;;;16.32;100.00
37878;BME280;23715;53.652;8.516;2023-05-01T15:22:53;101488.81;;;16.08;100.00
37878;BME280;23715;53.652;8.516;2023-05-01T15:27:53;101486.80;;;16.42;100.00
37878;BME280;23715;53.652;8.516;2023-05-01T15:32:53;101492.05;;;16.39;100.00
37878;BME280;23715;53.652;8.516;2023-05-01T15:37:58;101489.55;;;17.00;100.00
37878;BME280;23715;53.652;8.516;2023-05-01T15:42:55;101496.73;;;16.51;100.00
37878;BME280;23715;53.652;8.516;2023-05-01T15:47:54;101496.91;;;16.68;100.00
37878;BME280;23715;53.652;8.516;2023-05-01T15:52:53;101501.81;;;16.32;100.00
37878;BME280;23715;53.652;8.516;2023-05-01T15:58:02;101495.47;;;17.00;100.00
37878;BME280;23715;53.652;8.516;2023-05-01T16:03:00;101499.98;;;16.87;100.00
37878;BME280;23715;53.652;8.516;2023-05-01T16:08:01;101500.08;;;16.45;100.00
37878;BME280;23715;53.652;8.516;2023-05-01T16:13:03;101502.62;;;16.65;100.00
37878;BME280;23715;53.652;8.516;2023-05-01T16:18:04;101495.88;;;16.69;100.00
37878;BME280;23715;53.652;8.516;2023-05-01T16:23:03;101499.80;;;16.88;100.00
37878;BME280;23715;53.652;8.516;2023-05-01T16:28:08;101488.60;;;16.87;100.00
37878;BME280;23715;53.652;8.516;2023-05-01T16:33:04;101492.83;;;16.86;100.00
37878;BME280;23715;53.652;8.516;2023-05-01T16:38:07;101492.40;;;16.94;100.00
37878;BME280;23715;53.652;8.516;2023-05-01T16:43:07;101498.32;;;16.76;100.00
37878;BME280;23715;53.652;8.516;2023-05-01T16:48:06;101495.45;;;16.95;100.00
37878;BME280;23715;53.652;8.516;2023-05-01T16:53:05;101495.24;;;16.89;100.00
37878;BME280;23715;53.652;8.516;2023-05-01T16:58:05;101505.77;;;16.74;100.00
37878;BME280;23715;53.652;8.516;2023-05-01T17:03:05;101512.76;;;16.09;100.00
37878;BME280;23715;53.652;8.516;2023-05-01T17:08:04;101509.78;;;16.66;100.00
37878;BME280;23715;53.652;8.516;2023-05-01T17:13:04;101511.73;;;16.10;100.00
37878;BME280;23715;53.652;8.516;2023-05-01T17:18:05;101505.05;;;15.67;100.00
37878;BME280;23715;53.652;8.516;2023-05-01T17:23:04;101511.81;;;15.39;100.00
37878;BME280;23715;53.652;8.516;2023-05-01T17:28:04;101527.78;;;14.79;100.00
37878;BME280;23715;53.652;8.516;2023-05-01T17:33:04;101521.31;;;14.86;100.00
37878;BME280;23715;53.652;8.516;2023-05-01T17:38:03;101519.57;;;14.95;100.00
37878;BME280;23715;53.652;8.516;2023-05-01T17:43:03;101521.96;;;14.74;100.00
37878;BME280;23715;53.652;8.516;2023-05-01T17:48:02;101532.14;;;14.86;100.00
37878;BME280;23715;53.652;8.516;2023-05-01T17:53:02;101537.42;;;14.78;100.00
37878;BME280;23715;53.652;8.516;2023-05-01T17:58:02;101539.91;;;14.31;100.00
37878;BME280;23715;53.652;8.516;2023-05-01T18:03:02;101540.98;;;14.59;100.00
37878;BME280;23715;53.652;8.516;2023-05-01T18:08:02;101547.61;;;14.80;100.00
37878;BME280;23715;53.652;8.516;2023-05-01T18:13:01;101551.32;;;14.44;100.00
37878;BME280;23715;53.652;8.516;2023-05-01T18:18:01;101553.16;;;14.59;100.00
37878;BME280;23715;53.652;8.516;2023-05-01T18:23:01;101554.36;;;14.35;100.00
37878;BME280;23715;53.652;8.516;2023-05-01T18:28:00;101572.23;;;13.61;100.00
37878;BME280;23715;53.652;8.516;2023-05-01T18:32:59;101566.73;;;13.57;100.00
37878;BME280;23715;53.652;8.516;2023-05-01T18:37:59;101574.36;;;13.36;100.00
37878;BME280;23715;53.652;8.516;2023-05-01T18:42:59;101569.39;;;13.47;100.00
37878;BME280;23715;53.652;8.516;2023-05-01T18:48:07;101566.50;;;13.70;100.00
37878;BME280;23715;53.652;8.516;2023-05-01T18:53:07;101564.00;;;13.62;100.00
37878;BME280;23715;53.652;8.516;2023-05-01T18:58:06;101573.48;;;12.82;100.00
37878;BME280;23715;53.652;8.516;2023-05-01T19:03:05;101567.14;;;13.25;100.00
37878;BME280;23715;53.652;8.516;2023-05-01T19:08:06;101579.28;;;13.04;100.00
37878;BME280;23715;53.652;8.516;2023-05-01T19:13:07;101598.20;;;12.66;100.00
37878;BME280;23715;53.652;8.516;2023-05-01T19:18:06;101603.03;;;12.89;100.00
37878;BME280;23715;53.652;8.516;2023-05-01T19:23:06;101607.46;;;13.17;100.00
37878;BME280;23715;53.652;8.516;2023-05-01T19:28:06;101617.42;;;12.84;100.00
37878;BME280;23715;53.652;8.516;2023-05-01T19:33:07;101625.58;;;12.62;100.00
37878;BME280;23715;53.652;8.516;2023-05-01T19:38:08;101627.13;;;12.76;100.00
37878;BME280;23715;53.652;8.516;2023-05-01T19:43:08;101643.11;;;12.67;100.00
37878;BME280;23715;53.652;8.516;2023-05-01T19:48:08;101644.73;;;12.36;100.00
37878;BME280;23715;53.652;8.516;2023-05-01T19:53:08;101648.55;;;12.34;100.00
37878;BME280;23715;53.652;8.516;2023-05-01T19:58:08;101651.22;;;12.56;100.00
37878;BME280;23715;53.652;8.516;2023-05-01T20:03:07;101649.86;;;12.62;100.00
37878;BME280;23715;53.652;8.516;2023-05-01T20:08:08;101656.00;;;12.58;100.00
37878;BME280;23715;53.652;8.516;2023-05-01T20:13:07;101664.61;;;12.07;100.00
37878;BME280;23715;53.652;8.516;2023-05-01T20:18:08;101680.28;;;12.02;100.00
37878;BME280;23715;53.652;8.516;2023-05-01T20:23:15;101681.65;;;12.24;100.00
37878;BME280;23715;53.652;8.516;2023-05-01T20:28:11;101693.05;;;12.11;100.00
37878;BME280;23715;53.652;8.516;2023-05-01T20:33:12;101708.36;;;12.05;100.00
37878;BME280;23715;53.652;8.516;2023-05-01T20:38:11;101710.93;;;12.23;100.00
37878;BME280;23715;53.652;8.516;2023-05-01T20:43:11;101722.47;;;12.14;100.00
37878;BME280;23715;53.652;8.516;2023-05-01T20:48:10;101733.75;;;12.64;100.00
37878;BME280;23715;53.652;8.516;2023-05-01T20:53:11;101746.39;;;12.41;100.00
37878;BME280;23715;53.652;8.516;2023-05-01T20:58:11;101744.43;;;12.60;100.00
37878;BME280;23715;53.652;8.516;2023-05-01T21:03:10;101751.38;;;12.23;100.00
37878;BME280;23715;53.652;8.516;2023-05-01T21:08:14;101756.41;;;12.17;100.00
37878;BME280;23715;53.652;8.516;2023-05-01T21:13:14;101767.72;;;12.61;100.00
37878;BME280;23715;53.652;8.516;2023-05-01T21:18:15;101766.80;;;13.23;100.00
37878;BME280;23715;53.652;8.516;2023-05-01T21:23:17;101767.28;;;13.39;100.00
37878;BME280;23715;53.652;8.516;2023-05-01T21:28:16;101770.91;;;12.66;100.00
37878;BME280;23715;53.652;8.516;2023-05-01T21:33:16;101765.13;;;12.82;100.00
37878;BME280;23715;53.652;8.516;2023-05-01T21:38:15;101772.45;;;13.14;100.00
37878;BME280;23715;53.652;8.516;2023-05-01T21:43:15;101771.77;;;12.78;100.00
37878;BME280;23715;53.652;8.516;2023-05-01T21:48:16;101776.16;;;13.07;100.00
37878;BME280;23715;53.652;8.516;2023-05-01T21:53:17;101785.52;;;12.53;100.00
37878;BME280;23715;53.652;8.516;2023-05-01T21:58:16;101797.81;;;12.10;100.00
37878;BME280;23715;53.652;8.516;2023-05-01T22:03:16;101828.21;;;12.12;100.00
37878;BME280;23715;53.652;8.516;2023-05-01T22:08:16;101850.59;;;11.77;100.00
37878;BME280;23715;53.652;8.516;2023-05-01T22:13:16;101885.32;;;12.41;100.00
37878;BME280;23715;53.652;8.516;2023-05-01T22:18:15;101913.93;;;11.77;100.00
37878;BME280;23715;53.652;8.516;2023-05-01T22:23:16;101972.64;;;11.66;100.00
37878;BME280;23715;53.652;8.516;2023-05-01T22:28:16;102036.55;;;11.46;100.00
37878;BME280;23715;53.652;8.516;2023-05-01T22:33:15;102148.34;;;11.26;100.00
37878;BME280;23715;53.652;8.516;2023-05-01T22:38:15;102247.47;;;11.13;100.00
37878;BME280;23715;53.652;8.516;2023-05-01T22:43:15;102345.61;;;11.22;100.00
37878;BME280;23715;53.652;8.516;2023-05-01T22:48:14;102446.20;;;10.92;100.00
37878;BME280;23715;53.652;8.516;2023-05-01T22:53:14;102594.42;;;10.59;100.00
37878;BME280;23715;53.652;8.516;2023-05-01T22:58:13;102727.77;;;10.31;100.00
37878;BME280;23715;53.652;8.516;2023-05-01T23:03:12;102899.67;;;10.69;100.00
37878;BME280;23715;53.652;8.516;2023-05-01T23:08:12;103001.64;;;10.49;100.00
37878;BME280;23715;53.652;8.516;2023-05-01T23:13:16;103123.11;;;10.68;100.00
37878;BME280;23715;53.652;8.516;2023-05-01T23:18:18;103237.27;;;10.72;100.00
37878;BME280;23715;53.652;8.516;2023-05-01T23:23:18;103329.89;;;10.58;100.00
37878;BME280;23715;53.652;8.516;2023-05-01T23:28:19;103435.09;;;10.72;100.00
37878;BME280;23715;53.652;8.516;2023-05-01T23:33:19;103515.78;;;10.74;100.00
37878;BME280;23715;53.652;8.516;2023-05-01T23:38:19;103582.38;;;10.59;100.00
37878;BME280;23715;53.652;8.516;2023-05-01T23:43:18;103665.92;;;10.78;100.00
37878;BME280;23715;53.652;8.516;2023-05-01T23:48:18;103709.78;;;10.58;100.00
37878;BME280;23715;53.652;8.516;2023-05-01T23:53:18;103788.84;;;10.30;100.00
37878;BME280;23715;53.652;8.516;2023-05-01T23:58:17;103896.91;;;10.29;100.00
